Time;durP1;ratioP1;P1;durP2;ratioP2;P2;SDS_P1;SDS_P2;PMS_P1;PMS_P2;Temp;Humidity;BMP_temperature;BMP_pressure;BME280_temperature;BME280_humidity;BME280_pressure;Samples;Min_cycle;Max_cycle;Signal;HPM_P1;HPM_P2
2021/08/19 00:00:04;;;;;;;7.27;5.90;;;;;;;14.44;77.14;98772.70;124738;1093;64306;-84
2021/08/19 00:02:51;;;;;;;8.20;5.45;;;;;;;14.43;77.20;98762.97;124702;1093;64287;-84
2021/08/19 00:05:18;;;;;;;6.83;5.83;;;;;;;14.40;77.21;98765.89;124764;1093;64271;-84
2021/08/19 00:07:46;;;;;;;7.67;5.80;;;;;;;14.35;77.23;98762.75;124748;1093;64294;-84
2021/08/19 00:10:14;;;;;;;9.03;5.53;;;;;;;14.28;77.13;98763.30;124720;1093;64357;-84
2021/08/19 00:12:41;;;;;;;8.03;4.80;;;;;;;14.24;77.19;98759.20;124661;1093;64278;-84
2021/08/19 00:15:09;;;;;;;9.37;5.23;;;;;;;14.20;77.24;98768.47;124724;1093;64268;-84
2021/08/19 00:17:36;;;;;;;5.70;4.55;;;;;;;14.16;77.54;98763.49;124685;1093;64322;-84
2021/08/19 00:20:04;;;;;;;6.30;4.53;;;;;;;14.15;77.66;98767.16;124744;1093;64290;-84
2021/08/19 00:22:32;;;;;;;6.65;4.70;;;;;;;14.16;77.74;98769.69;124714;1093;64428;-84
2021/08/19 00:25:00;;;;;;;8.10;5.80;;;;;;;14.16;77.85;98775.05;124725;1093;64441;-84
2021/08/19 00:27:27;;;;;;;9.70;6.90;;;;;;;14.14;77.91;98768.13;124701;1093;65078;-84
2021/08/19 00:29:54;;;;;;;8.00;5.60;;;;;;;14.09;78.10;98765.86;124752;1093;64296;-84
2021/08/19 00:32:22;;;;;;;5.93;4.87;;;;;;;14.07;78.18;98765.13;124756;1093;64277;-84
2021/08/19 00:34:49;;;;;;;5.63;4.17;;;;;;;14.02;78.32;98773.55;124723;1093;64249;-84
2021/08/19 00:37:16;;;;;;;5.03;4.10;;;;;;;13.98;78.50;98774.81;124790;1092;64422;-84
2021/08/19 00:39:45;;;;;;;5.67;3.80;;;;;;;13.96;78.69;98773.23;124746;1093;64762;-84
2021/08/19 00:42:16;;;;;;;5.90;3.65;;;;;;;13.94;78.87;98768.00;124694;1093;64351;-84
2021/08/19 00:44:44;;;;;;;6.87;3.57;;;;;;;13.96;79.07;98770.56;124738;1093;64240;-84
2021/08/19 00:47:11;;;;;;;4.87;3.80;;;;;;;14.00;79.07;98771.98;124736;1093;64303;-84
2021/08/19 00:49:43;;;;;;;4.07;3.43;;;;;;;14.05;79.08;98767.09;124733;1093;64275;-84
2021/08/19 00:52:11;;;;;;;3.60;3.27;;;;;;;14.11;79.05;98763.03;124741;1093;64277;-84
2021/08/19 00:54:40;;;;;;;5.70;3.43;;;;;;;14.12;79.16;98770.11;124765;1093;64312;-84
2021/08/19 00:57:07;;;;;;;4.60;3.40;;;;;;;14.11;79.23;98771.07;124847;1093;64297;-84
2021/08/19 00:59:37;;;;;;;4.15;3.40;;;;;;;14.11;79.24;98773.75;124720;1093;64418;-84
2021/08/19 01:02:06;;;;;;;3.63;2.60;;;;;;;14.14;79.19;98770.80;124788;1092;64248;-84
2021/08/19 01:04:42;;;;;;;4.63;3.47;;;;;;;14.18;79.41;98762.38;124747;1093;64322;-84
2021/08/19 01:07:10;;;;;;;3.20;2.90;;;;;;;14.24;79.34;98766.36;124775;1093;64241;-84
2021/08/19 01:09:38;;;;;;;4.67;3.10;;;;;;;14.32;79.11;98771.06;124744;1093;64271;-84
2021/08/19 01:12:06;;;;;;;3.40;2.83;;;;;;;14.38;79.14;98765.20;124771;1093;64379;-84
2021/08/19 01:14:35;;;;;;;3.20;2.87;;;;;;;14.46;79.19;98760.02;124775;1093;64271;-84
2021/08/19 01:17:10;;;;;;;3.43;2.97;;;;;;;14.50;79.12;98756.91;124687;1093;64277;-84
2021/08/19 01:19:38;;;;;;;3.90;3.03;;;;;;;14.50;79.03;98766.80;124786;1093;64220;-84
2021/08/19 01:22:06;;;;;;;6.40;3.50;;;;;;;14.49;78.93;98760.59;124820;1094;64347;-84
2021/08/19 01:24:33;;;;;;;5.25;3.70;;;;;;;14.48;79.19;98760.71;124671;1093;64249;-84
2021/08/19 01:27:01;;;;;;;3.35;2.50;;;;;;;14.46;79.21;98770.75;124682;1093;64413;-85
2021/08/19 01:29:28;;;;;;;4.00;2.80;;;;;;;14.46;79.35;98768.91;124682;1093;64699;-84
2021/08/19 01:32:05;;;;;;;3.70;2.60;;;;;;;14.45;79.19;98764.50;124749;1092;64198;-84
2021/08/19 01:34:32;;;;;;;2.83;2.53;;;;;;;14.47;79.63;98764.39;124771;1093;64266;-84
2021/08/19 01:36:59;;;;;;;2.77;2.30;;;;;;;14.47;79.58;98767.91;124742;1093;64376;-84
2021/08/19 01:39:27;;;;;;;2.07;1.87;;;;;;;14.49;79.65;98773.16;124782;1093;64306;-85
2021/08/19 01:41:55;;;;;;;2.90;2.27;;;;;;;14.51;79.90;98768.52;124895;1093;64263;-84
2021/08/19 01:44:22;;;;;;;3.37;2.20;;;;;;;14.52;79.77;98762.16;124826;1093;64303;-84
2021/08/19 01:47:01;;;;;;;2.20;2.00;;;;;;;14.52;79.89;98767.52;124808;1093;64293;-84
2021/08/19 01:49:34;;;;;;;3.13;2.60;;;;;;;14.49;80.23;98765.95;124739;1093;64303;-84
2021/08/19 01:52:05;;;;;;;4.47;2.77;;;;;;;14.46;80.34;98763.55;124792;1093;64408;-84
2021/08/19 01:54:32;;;;;;;2.50;2.30;;;;;;;14.45;80.18;98769.02;124832;1093;64291;-84
2021/08/19 01:57:00;;;;;;;4.20;2.60;;;;;;;14.43;80.24;98762.97;124791;1093;64217;-84
2021/08/19 01:59:31;;;;;;;2.30;2.07;;;;;;;14.45;80.31;98763.66;124798;1093;64287;-84
2021/08/19 02:02:00;;;;;;;2.63;2.37;;;;;;;14.46;80.56;98763.55;124707;1093;64310;-84
2021/08/19 02:04:28;;;;;;;3.13;2.30;;;;;;;14.51;80.61;98757.79;124822;1093;64293;-84
2021/08/19 02:06:56;;;;;;;2.50;2.07;;;;;;;14.57;80.70;98756.44;124860;1093;64278;-84
2021/08/19 02:09:23;;;;;;;3.27;2.27;;;;;;;14.63;80.70;98769.30;124765;1093;64274;-84
2021/08/19 02:11:50;;;;;;;3.03;2.30;;;;;;;14.70;81.09;98759.73;124734;1093;64267;-84
2021/08/19 02:14:17;;;;;;;4.50;2.40;;;;;;;14.77;80.67;98760.03;124770;1093;64376;-84
2021/08/19 02:16:45;;;;;;;2.90;2.20;;;;;;;14.81;81.00;98765.00;124755;1093;64290;-84
2021/08/19 02:19:12;;;;;;;4.05;2.40;;;;;;;14.83;80.79;98762.20;124795;1093;64271;-84
2021/08/19 02:21:40;;;;;;;4.15;2.25;;;;;;;14.86;80.75;98762.77;124759;1093;64300;-84
2021/08/19 02:24:07;;;;;;;2.43;2.23;;;;;;;14.89;80.84;98765.17;124796;1093;64268;-85
2021/08/19 02:26:34;;;;;;;2.20;1.80;;;;;;;14.90;80.87;98758.84;124757;1093;64258;-84
2021/08/19 02:29:02;;;;;;;2.10;1.80;;;;;;;14.92;80.72;98754.16;124670;1093;64306;-84
2021/08/19 02:31:29;;;;;;;1.90;1.80;;;;;;;14.93;80.81;98753.20;124753;1093;64294;-84
2021/08/19 02:33:56;;;;;;;2.10;1.87;;;;;;;14.93;80.79;98755.88;124710;1093;64657;-84
2021/08/19 02:36:23;;;;;;;2.30;2.10;;;;;;;14.95;81.07;98753.04;124740;1093;64378;-84
2021/08/19 02:38:51;;;;;;;2.30;2.00;;;;;;;14.91;80.75;98754.31;124712;1093;64335;-84
2021/08/19 02:41:18;;;;;;;3.83;2.43;;;;;;;14.88;80.80;98750.06;124771;1093;64251;-84
2021/08/19 02:43:45;;;;;;;4.50;2.40;;;;;;;14.85;81.00;98754.84;124705;1093;64268;-84
2021/08/19 02:46:13;;;;;;;2.27;1.83;;;;;;;14.79;81.06;98756.23;124781;1093;64293;-84
2021/08/19 02:48:41;;;;;;;3.07;2.27;;;;;;;14.73;81.34;98750.58;124753;1093;64293;-84
2021/08/19 02:51:09;;;;;;;2.80;2.10;;;;;;;14.67;81.33;98758.17;124671;1093;64395;-84
2021/08/19 02:53:36;;;;;;;3.70;2.20;;;;;;;14.66;81.39;98758.30;124728;1093;64327;-84
2021/08/19 02:56:04;;;;;;;3.50;2.40;;;;;;;14.61;81.53;98758.72;124725;1093;64284;-84
2021/08/19 02:58:31;;;;;;;2.73;2.47;;;;;;;14.58;81.81;98758.12;124770;1093;64268;-84
2021/08/19 03:00:58;;;;;;;2.40;2.00;;;;;;;14.56;82.04;98749.35;124656;1093;64274;-84
2021/08/19 03:03:25;;;;;;;2.07;1.87;;;;;;;14.55;82.10;98747.66;124719;1093;64271;-84
2021/08/19 03:05:52;;;;;;;2.90;2.60;;;;;;;14.54;81.96;98745.98;124741;1093;64316;-84
2021/08/19 03:08:19;;;;;;;2.85;1.75;;;;;;;14.55;82.41;98748.51;124701;1093;64355;-84
2021/08/19 03:10:47;;;;;;;2.40;2.10;;;;;;;14.56;82.13;98746.67;124699;1093;65370;-84
2021/08/19 03:13:14;;;;;;;2.53;1.93;;;;;;;14.59;82.12;98743.75;124745;1093;64177;-84
2021/08/19 03:15:41;;;;;;;4.57;2.00;;;;;;;14.61;82.55;98750.67;124738;1093;64297;-84
2021/08/19 03:18:08;;;;;;;2.10;1.97;;;;;;;14.65;82.54;98753.92;124814;1093;64405;-84
2021/08/19 03:20:35;;;;;;;3.13;2.20;;;;;;;14.66;82.83;98752.93;124749;1093;64217;-84
2021/08/19 03:23:02;;;;;;;4.05;2.70;;;;;;;14.69;82.61;98741.92;124715;1093;64251;-84
2021/08/19 03:25:30;;;;;;;3.43;2.43;;;;;;;14.73;82.53;98748.73;124750;1093;64254;-84
2021/08/19 03:28:02;;;;;;;2.60;2.20;;;;;;;14.75;82.57;98746.77;124754;1093;64358;-84
2021/08/19 03:30:29;;;;;;;2.20;1.93;;;;;;;14.80;82.67;98749.06;124837;1093;64322;-84
2021/08/19 03:32:58;;;;;;;3.10;2.25;;;;;;;14.83;82.39;98741.58;124799;1093;64254;-84
2021/08/19 03:35:25;;;;;;;3.10;2.43;;;;;;;14.86;82.36;98751.19;124778;1093;64279;-84
2021/08/19 03:37:52;;;;;;;2.33;2.13;;;;;;;14.87;82.42;98742.14;124806;1093;64274;-84
2021/08/19 03:40:19;;;;;;;2.97;2.63;;;;;;;14.90;82.56;98747.23;124759;1093;64269;-85
2021/08/19 03:42:46;;;;;;;2.60;2.40;;;;;;;14.89;82.50;98742.86;124781;1093;64766;-84
2021/08/19 03:45:17;;;;;;;3.30;2.20;;;;;;;14.91;82.30;98741.74;124800;1093;64386;-84
2021/08/19 03:47:44;;;;;;;3.87;2.30;;;;;;;14.93;82.30;98741.62;124796;1093;64370;-84
2021/08/19 03:50:12;;;;;;;2.33;2.00;;;;;;;14.97;82.55;98736.81;124723;1093;64293;-85
2021/08/19 03:52:39;;;;;;;2.15;1.95;;;;;;;15.01;82.49;98740.91;124723;1093;64425;-84
2021/08/19 03:55:07;;;;;;;2.50;2.30;;;;;;;15.03;82.43;98742.47;124770;1093;64282;-84
2021/08/19 03:57:34;;;;;;;2.20;2.00;;;;;;;15.07;82.11;98743.91;124683;1092;64319;-84
2021/08/19 04:00:01;;;;;;;2.35;2.15;;;;;;;15.10;82.17;98748.99;124757;1093;64190;-84
2021/08/19 04:02:28;;;;;;;4.43;2.90;;;;;;;15.17;81.93;98754.67;124764;1093;64370;-84
2021/08/19 04:04:56;;;;;;;2.50;1.87;;;;;;;15.29;81.88;98756.23;124711;1093;64344;-84
2021/08/19 04:07:23;;;;;;;2.83;1.87;;;;;;;15.90;81.01;98757.86;124810;1093;64287;-85
2021/08/19 04:09:50;;;;;;;2.20;1.77;;;;;;;16.54;79.92;98750.97;124684;1094;64297;-86
2021/08/19 04:12:17;;;;;;;2.40;2.17;;;;;;;17.04;78.81;98750.64;124760;1092;64242;-84
2021/08/19 04:14:44;;;;;;;2.45;1.70;;;;;;;17.03;77.99;98740.86;124674;1093;64364;-84
2021/08/19 04:17:12;;;;;;;3.30;1.80;;;;;;;16.88;78.45;98743.22;124769;1093;64418;-87
2021/08/19 04:19:39;;;;;;;1.97;1.80;;;;;;;16.71;78.43;98745.80;124765;1093;64191;-85
2021/08/19 04:22:07;;;;;;;1.93;1.80;;;;;;;16.55;78.50;98744.58;124763;1093;64268;-86
2021/08/19 04:24:34;;;;;;;2.65;2.00;;;;;;;16.44;78.72;98756.37;124742;1093;64300;-87
2021/08/19 04:27:01;;;;;;;3.17;2.07;;;;;;;16.38;78.69;98748.89;124828;1092;64274;-85
2021/08/19 04:29:31;;;;;;;1.80;1.70;;;;;;;16.33;78.74;98753.86;124734;1093;64316;-84
2021/08/19 04:31:59;;;;;;;;;;;;;;;16.31;78.72;98752.30;124792;1092;64290;-84
2021/08/19 04:34:30;;;;;;;2.90;1.80;;;;;;;16.32;78.71;98745.92;124731;1093;64287;-85
2021/08/19 04:36:58;;;;;;;3.10;2.40;;;;;;;16.33;78.75;98748.48;124760;1093;64293;-85
2021/08/19 04:39:27;;;;;;;2.43;2.23;;;;;;;16.41;78.43;98743.22;124746;1093;64296;-82
2021/08/19 04:41:55;;;;;;;3.20;2.43;;;;;;;16.46;78.50;98749.01;124672;1093;64439;-85
2021/08/19 04:44:22;;;;;;;3.27;2.30;;;;;;;16.50;78.31;98746.86;124828;1093;64431;-85
2021/08/19 04:46:49;;;;;;;3.30;2.50;;;;;;;16.52;78.33;98746.73;124722;1093;64299;-85
2021/08/19 04:49:17;;;;;;;2.45;2.10;;;;;;;16.54;78.19;98737.52;124751;1094;64293;-85
2021/08/19 04:51:45;;;;;;;2.20;1.87;;;;;;;16.60;77.99;98749.53;124729;1093;64338;-85
2021/08/19 04:54:13;;;;;;;2.50;1.90;;;;;;;16.66;78.12;98741.70;124741;1093;64450;-83
2021/08/19 04:56:40;;;;;;;2.20;1.90;;;;;;;16.73;77.86;98744.66;124755;1093;64275;-83
2021/08/19 04:59:09;;;;;;;6.50;2.23;;;;;;;16.80;77.92;98736.89;124704;1093;64287;-83
2021/08/19 05:01:38;;;;;;;;;;;;;;;16.89;77.98;98744.90;124783;1093;64254;-83
2021/08/19 05:04:06;;;;;;;4.30;2.10;;;;;;;16.96;77.39;98742.47;124762;1093;64245;-83
2021/08/19 05:06:35;;;;;;;2.43;2.03;;;;;;;17.09;77.14;98745.66;124632;1093;64319;-83
2021/08/19 05:09:04;;;;;;;2.50;2.10;;;;;;;17.29;76.80;98743.68;124760;1093;64198;-86
2021/08/19 05:11:32;;;;;;;2.45;2.10;;;;;;;17.83;76.47;98738.36;124783;1093;64354;-83
2021/08/19 05:13:59;;;;;;;2.35;1.90;;;;;;;18.45;75.20;98740.16;124776;1093;64367;-84
2021/08/19 05:16:27;;;;;;;2.87;2.03;;;;;;;18.78;74.37;98739.38;124788;1093;64257;-84
2021/08/19 05:18:55;;;;;;;2.17;2.00;;;;;;;18.83;74.01;98736.20;124705;1093;64363;-84
2021/08/19 05:21:25;;;;;;;6.63;2.33;;;;;;;18.95;73.84;98731.34;124767;1093;64306;-84
2021/08/19 05:23:52;;;;;;;;;;;;;;;18.96;73.62;98736.59;124809;1093;64220;-84
2021/08/19 05:26:19;;;;;;;3.40;2.50;;;;;;;18.97;73.69;98737.44;124776;1093;64625;-84
2021/08/19 05:28:48;;;;;;;3.70;2.47;;;;;;;18.99;73.73;98741.66;124743;1093;64230;-84
2021/08/19 05:31:15;;;;;;;2.73;1.93;;;;;;;18.94;72.67;98743.16;124799;1093;64402;-84
2021/08/19 05:33:42;;;;;;;2.67;2.10;;;;;;;18.87;72.78;98745.66;124734;1093;64269;-84
2021/08/19 05:36:09;;;;;;;3.77;2.10;;;;;;;18.84;72.53;98751.38;124699;1093;64229;-84
2021/08/19 05:38:37;;;;;;;3.07;2.17;;;;;;;18.77;72.75;98745.80;124755;1093;64297;-84
2021/08/19 05:41:05;;;;;;;3.73;2.50;;;;;;;18.75;72.60;98749.66;124741;1093;64340;-84
2021/08/19 05:43:33;;;;;;;2.47;1.93;;;;;;;18.70;72.82;98746.56;124798;1093;64359;-84
2021/08/19 05:46:01;;;;;;;5.43;2.43;;;;;;;18.68;72.86;98745.88;124821;1092;64341;-84
2021/08/19 05:48:28;;;;;;;3.50;2.47;;;;;;;18.69;72.60;98745.69;124666;1093;64373;-84
2021/08/19 05:50:55;;;;;;;4.60;2.50;;;;;;;18.68;72.72;98741.31;124789;1093;64284;-84
2021/08/19 05:53:22;;;;;;;3.03;2.40;;;;;;;18.71;72.87;98740.98;124751;1093;64654;-84
2021/08/19 05:55:49;;;;;;;2.80;2.07;;;;;;;18.73;72.85;98743.54;124743;1093;64364;-84
2021/08/19 05:58:17;;;;;;;2.83;2.03;;;;;;;18.76;72.38;98746.78;124716;1093;64364;-84
2021/08/19 06:00:49;;;;;;;2.83;2.10;;;;;;;18.73;72.07;98749.78;124699;1093;64318;-84
2021/08/19 06:03:17;;;;;;;5.25;2.30;;;;;;;18.73;72.03;98754.34;124808;1093;64335;-84
2021/08/19 06:05:44;;;;;;;3.73;1.97;;;;;;;18.74;72.04;98743.36;124780;1093;64393;-84
2021/08/19 06:08:12;;;;;;;2.90;1.90;;;;;;;18.80;71.92;98748.17;124765;1093;64300;-84
2021/08/19 06:10:39;;;;;;;3.77;2.60;;;;;;;18.89;71.74;98748.20;124685;1093;64326;-84
2021/08/19 06:13:06;;;;;;;2.77;1.90;;;;;;;18.97;71.64;98751.78;124735;1093;64290;-85
2021/08/19 06:15:33;;;;;;;2.90;1.63;;;;;;;19.05;71.46;98745.56;124710;1093;64360;-84
2021/08/19 06:18:01;;;;;;;3.30;1.63;;;;;;;19.13;71.27;98752.86;124715;1093;64297;-84
2021/08/19 06:20:29;;;;;;;1.65;1.50;;;;;;;19.19;71.09;98738.69;124733;1093;64393;-85
2021/08/19 06:22:56;;;;;;;1.80;1.57;;;;;;;19.25;70.98;98738.89;124739;1093;64315;-85
2021/08/19 06:25:23;;;;;;;2.47;2.00;;;;;;;19.31;70.78;98748.19;124724;1093;64363;-85
2021/08/19 06:27:53;;;;;;;2.60;1.70;;;;;;;19.42;70.73;98742.47;124742;1093;64291;-85
2021/08/19 06:30:21;;;;;;;2.67;1.90;;;;;;;19.51;70.09;98740.66;124725;1092;64360;-85
2021/08/19 06:32:48;;;;;;;1.97;1.53;;;;;;;19.57;70.24;98742.68;124745;1093;64398;-85
2021/08/19 06:35:16;;;;;;;1.50;1.40;;;;;;;19.68;70.26;98739.67;124746;1093;64397;-85
2021/08/19 06:37:43;;;;;;;1.47;1.37;;;;;;;19.83;69.28;98733.63;124782;1093;64268;-85
2021/08/19 06:40:11;;;;;;;4.10;2.43;;;;;;;19.98;68.45;98737.33;124758;1093;64291;-85
2021/08/19 06:42:38;;;;;;;2.40;1.60;;;;;;;20.14;68.89;98731.94;124765;1093;64271;-85
2021/08/19 06:45:06;;;;;;;2.43;2.10;;;;;;;20.31;68.18;98742.73;124751;1093;64293;-85
2021/08/19 06:47:33;;;;;;;3.57;1.63;;;;;;;20.42;68.03;98736.12;124732;1093;64283;-84
2021/08/19 06:50:00;;;;;;;4.87;1.70;;;;;;;20.52;67.56;98743.03;124815;1093;64291;-85
2021/08/19 06:52:27;;;;;;;1.63;1.53;;;;;;;20.60;67.19;98742.20;124787;1093;64274;-85
2021/08/19 06:54:57;;;;;;;3.63;1.60;;;;;;;20.74;67.30;98744.18;124769;1093;64361;-85
2021/08/19 06:57:24;;;;;;;1.60;1.40;;;;;;;20.90;66.53;98731.61;124803;1092;64271;-85
2021/08/19 06:59:51;;;;;;;2.70;1.80;;;;;;;21.06;66.46;98734.24;124777;1093;64197;-85
2021/08/19 07:02:18;;;;;;;2.25;2.00;;;;;;;21.20;66.26;98738.94;124740;1093;64284;-85
2021/08/19 07:04:45;;;;;;;2.03;1.80;;;;;;;21.43;66.34;98732.73;124735;1093;64267;-85
2021/08/19 07:07:12;;;;;;;2.13;1.97;;;;;;;21.56;65.09;98730.27;124757;1093;64294;-85
2021/08/19 07:09:40;;;;;;;4.00;2.40;;;;;;;21.55;63.39;98733.19;124758;1092;64225;-85
2021/08/19 07:12:07;;;;;;;1.80;1.70;;;;;;;21.53;63.85;98735.22;124898;1093;64431;-85
2021/08/19 07:14:34;;;;;;;1.90;1.80;;;;;;;21.56;62.97;98734.86;124707;1093;64309;-86
2021/08/19 07:17:01;;;;;;;1.83;1.60;;;;;;;21.54;63.17;98740.48;124951;1093;64325;-86
2021/08/19 07:19:28;;;;;;;1.97;1.70;;;;;;;21.61;63.63;98724.31;125030;1093;64690;-85
2021/08/19 07:21:55;;;;;;;2.15;2.00;;;;;;;21.69;63.62;98729.68;124701;1093;64335;-87
2021/08/19 07:24:23;;;;;;;3.57;2.67;;;;;;;21.77;63.40;98724.19;124721;1093;64392;-85
2021/08/19 07:26:50;;;;;;;3.35;2.45;;;;;;;21.91;63.34;98733.44;124777;1093;64287;-84
2021/08/19 07:29:17;;;;;;;2.70;1.93;;;;;;;22.04;62.82;98735.55;124787;1093;64275;-84
2021/08/19 07:31:44;;;;;;;2.07;1.87;;;;;;;22.06;61.81;98730.75;124691;1093;64252;-85
2021/08/19 07:34:29;;;;;;;4.30;2.67;;;;;;;22.03;61.56;98728.41;124713;1093;64478;-84
2021/08/19 07:36:57;;;;;;;2.63;1.60;;;;;;;22.01;61.60;98733.16;124750;1093;64329;-84
2021/08/19 07:39:24;;;;;;;3.10;2.00;;;;;;;22.06;61.63;98730.75;124767;1093;64282;-84
2021/08/19 07:41:51;;;;;;;1.90;1.80;;;;;;;22.17;61.27;98733.05;124833;1093;64279;-84
2021/08/19 07:44:18;;;;;;;3.47;1.87;;;;;;;22.19;61.05;98722.86;124795;1092;64248;-85
2021/08/19 07:46:45;;;;;;;2.70;2.00;;;;;;;22.17;60.74;98726.75;124755;1093;64341;-84
2021/08/19 07:49:15;;;;;;;1.70;1.60;;;;;;;22.17;60.93;98732.19;124763;1093;64278;-85
2021/08/19 07:51:43;;;;;;;1.80;1.63;;;;;;;22.17;61.04;98729.47;124721;1093;64319;-85
2021/08/19 07:54:10;;;;;;;2.27;2.00;;;;;;;22.26;61.54;98731.97;124726;1093;64275;-85
2021/08/19 07:56:37;;;;;;;2.00;1.80;;;;;;;22.43;61.44;98729.08;124781;1093;64218;-85
2021/08/19 07:59:04;;;;;;;4.07;2.70;;;;;;;22.55;61.13;98733.04;124872;1093;64415;-81
2021/08/19 08:04:16;;;;;;;2.80;2.60;;;;;;;22.73;60.60;98738.12;122411;1093;64279;-91
2021/08/19 08:06:44;;;;;;;3.00;1.97;;;;;;;22.85;60.37;98730.33;124812;1093;64281;-87
2021/08/19 08:09:11;;;;;;;2.07;1.97;;;;;;;23.00;60.61;98739.35;124794;1093;64277;-87
2021/08/19 08:11:39;;;;;;;2.23;1.70;;;;;;;23.10;60.14;98739.91;124790;1093;64328;-89
2021/08/19 08:14:06;;;;;;;2.83;1.87;;;;;;;23.17;59.91;98737.26;124840;1093;64309;-85
2021/08/19 08:16:33;;;;;;;2.57;2.37;;;;;;;23.18;59.59;98738.97;124886;1093;64379;-86
2021/08/19 08:19:02;;;;;;;2.27;2.07;;;;;;;23.23;59.71;98739.23;124743;1093;64274;-86
2021/08/19 08:21:30;;;;;;;4.37;1.90;;;;;;;23.30;58.75;98736.59;124823;1092;64294;-86
2021/08/19 08:23:59;;;;;;;2.40;1.70;;;;;;;23.35;59.24;98729.53;124786;1092;64828;-86
2021/08/19 08:26:27;;;;;;;2.00;1.90;;;;;;;23.38;58.44;98733.75;124788;1093;64198;-86
2021/08/19 08:28:56;;;;;;;3.53;1.80;;;;;;;23.35;58.37;98726.81;124778;1093;64274;-86
2021/08/19 08:31:23;;;;;;;;;;;;;;;23.36;58.31;98733.13;124848;1093;64386;-86
2021/08/19 08:33:51;;;;;;;4.43;1.90;;;;;;;23.38;58.39;98734.62;124828;1093;64274;-86
2021/08/19 08:36:19;;;;;;;3.03;2.30;;;;;;;23.33;58.01;98733.48;124749;1093;64271;-86
2021/08/19 08:38:46;;;;;;;2.30;2.07;;;;;;;23.32;57.64;98729.09;124721;1093;64303;-86
2021/08/19 08:41:14;;;;;;;4.13;2.20;;;;;;;23.27;57.82;98736.97;124803;1093;64769;-86
2021/08/19 08:43:42;;;;;;;2.10;1.83;;;;;;;23.18;57.77;98737.08;124722;1093;64275;-86
2021/08/19 08:46:10;;;;;;;3.40;1.90;;;;;;;23.22;58.59;98738.41;124690;1093;64294;-85
2021/08/19 08:48:38;;;;;;;3.00;2.17;;;;;;;23.38;58.56;98731.03;124728;1093;64306;-86
2021/08/19 08:51:06;;;;;;;2.27;2.03;;;;;;;23.50;57.72;98742.27;124729;1093;64364;-85
2021/08/19 08:53:33;;;;;;;1.97;1.87;;;;;;;23.71;56.86;98738.73;124741;1093;64288;-86
2021/08/19 08:56:00;;;;;;;2.33;2.13;;;;;;;23.96;57.34;98739.20;124747;1093;64252;-86
2021/08/19 08:58:27;;;;;;;2.95;2.15;;;;;;;24.21;57.51;98736.93;124648;1093;64278;-86
2021/08/19 09:00:55;;;;;;;2.13;1.97;;;;;;;24.42;57.02;98730.60;124655;1093;64369;-86
2021/08/19 09:03:22;;;;;;;6.30;3.17;;;;;;;24.71;56.98;98733.13;124788;1093;64338;-86
2021/08/19 09:05:51;;;;;;;2.57;2.37;;;;;;;24.93;56.01;98736.61;124717;1093;64277;-86
2021/08/19 09:08:24;;;;;;;;;;;;;;;24.94;55.78;98735.59;124800;1093;64350;-86
2021/08/19 09:10:57;;;;;;;2.30;1.77;;;;;;;24.88;55.15;98732.81;124799;1093;64370;-86
2021/08/19 09:13:28;;;;;;;3.00;2.37;;;;;;;24.83;56.17;98733.44;124680;1093;64335;-86
2021/08/19 09:16:15;;;;;;;2.60;2.40;;;;;;;24.87;55.73;98734.70;124758;1092;64340;-85
2021/08/19 09:18:43;;;;;;;2.20;2.00;;;;;;;24.90;55.06;98722.55;124740;1093;64353;-86
2021/08/19 09:21:21;;;;;;;2.30;2.10;;;;;;;24.94;55.48;98730.13;124766;1093;64279;-85
2021/08/19 09:24:11;;;;;;;1.90;1.80;;;;;;;24.99;55.12;98729.53;124705;1093;64243;-85
2021/08/19 09:26:39;;;;;;;1.90;1.80;;;;;;;24.93;53.96;98725.70;124708;1093;64293;-85
2021/08/19 09:29:28;;;;;;;2.77;2.00;;;;;;;24.84;54.40;98729.66;124754;1093;64268;-85
2021/08/19 09:32:16;;;;;;;8.47;2.53;;;;;;;24.85;54.55;98723.14;124748;1093;64281;-86
2021/08/19 09:34:49;;;;;;;5.60;1.77;;;;;;;24.80;53.12;98717.45;124773;1093;64248;-86
2021/08/19 09:37:20;;;;;;;2.57;2.17;;;;;;;24.68;53.67;98722.64;124810;1093;64290;-85
2021/08/19 09:39:59;;;;;;;2.87;2.10;;;;;;;24.62;54.90;98726.17;124733;1093;64313;-87
2021/08/19 09:42:37;;;;;;;2.05;1.90;;;;;;;24.60;54.51;98720.08;124651;1093;64276;-87
2021/08/19 09:45:18;;;;;;;3.00;1.93;;;;;;;24.37;54.05;98727.63;124739;1093;64724;-87
2021/08/19 09:47:45;;;;;;;2.90;1.90;;;;;;;24.21;53.12;98736.93;124784;1093;64315;-88
2021/08/19 09:50:14;;;;;;;2.33;2.20;;;;;;;24.04;53.50;98725.45;124638;1093;64339;-87
2021/08/19 09:52:45;;;;;;;2.60;2.20;;;;;;;24.00;53.75;98732.34;124608;1093;64271;-88
2021/08/19 09:55:27;;;;;;;1.80;1.70;;;;;;;23.96;54.93;98729.19;124702;1093;64252;-88
2021/08/19 09:57:56;;;;;;;3.23;2.00;;;;;;;23.73;54.42;98732.09;124748;1093;64271;-88
2021/08/19 10:00:31;;;;;;;3.27;2.80;;;;;;;23.80;55.08;98729.42;124832;1093;64223;-88
2021/08/19 10:03:00;;;;;;;2.17;1.97;;;;;;;24.00;55.38;98722.30;124950;1093;64317;-87
2021/08/19 10:05:27;;;;;;;3.90;2.17;;;;;;;24.21;55.52;98718.70;124882;1093;64271;-88
2021/08/19 10:07:55;;;;;;;2.67;1.83;;;;;;;24.48;54.63;98719.77;124829;1093;64348;-89
2021/08/19 10:10:22;;;;;;;1.80;1.70;;;;;;;24.72;54.29;98718.48;124911;1093;64236;-86
2021/08/19 10:12:50;;;;;;;2.83;2.10;;;;;;;24.70;53.50;98712.39;124764;1093;64274;-87
2021/08/19 10:15:17;;;;;;;2.47;1.93;;;;;;;24.56;52.67;98720.67;124624;1093;64657;-86
2021/08/19 10:17:52;;;;;;;3.57;3.33;;;;;;;24.37;52.36;98730.35;124581;1093;64263;-88
2021/08/19 10:20:24;;;;;;;2.40;2.00;;;;;;;24.27;52.63;98730.69;124711;1093;64313;-88
2021/08/19 10:22:53;;;;;;;2.83;1.63;;;;;;;24.22;53.08;98730.44;124628;1093;64721;-87
2021/08/19 10:25:25;;;;;;;2.88;1.70;;;;;;;24.15;52.65;98727.67;124727;1093;64370;-87
2021/08/19 10:28:17;;;;;;;3.67;1.60;;;;;;;24.10;52.99;98725.53;124687;1092;64252;-85
2021/08/19 10:30:58;;;;;;;2.33;1.80;;;;;;;24.14;53.18;98728.69;124774;1093;64345;-88
2021/08/19 10:33:37;;;;;;;2.30;1.80;;;;;;;24.26;53.29;98720.84;124797;1093;64280;-87
2021/08/19 10:36:26;;;;;;;;;;;;;;;24.43;53.10;98724.94;124730;1093;64287;-85
2021/08/19 10:39:36;;;;;;;2.00;1.90;;;;;;;24.56;53.03;98721.50;124786;1093;64271;-85
2021/08/19 10:42:08;;;;;;;2.90;2.50;;;;;;;24.66;53.38;98719.27;124665;1093;64278;-86
2021/08/19 10:44:39;;;;;;;3.47;2.10;;;;;;;24.80;53.05;98720.18;124699;1093;64428;-87
2021/08/19 10:47:06;;;;;;;1.80;1.70;;;;;;;24.84;53.32;98716.02;124746;1093;64300;-86
2021/08/19 10:49:39;;;;;;;2.10;2.00;;;;;;;24.79;52.59;98714.95;124730;1093;64291;-86
2021/08/19 10:52:11;;;;;;;2.25;2.10;;;;;;;24.71;52.87;98710.50;124723;1093;64391;-86
2021/08/19 10:54:40;;;;;;;2.47;1.60;;;;;;;24.65;52.53;98709.42;124800;1093;64271;-86
2021/08/19 10:57:27;;;;;;;1.97;1.87;;;;;;;24.56;53.02;98707.05;124725;1093;64273;-86
2021/08/19 11:00:02;;;;;;;3.40;2.00;;;;;;;24.52;52.83;98706.61;124767;1093;64382;-87
2021/08/19 11:02:40;;;;;;;1.63;1.53;;;;;;;24.53;52.49;98709.12;124757;1093;64290;-86
2021/08/19 11:05:12;;;;;;;2.28;2.00;;;;;;;24.39;51.98;98701.88;124738;1093;64274;-87
2021/08/19 11:07:53;;;;;;;1.63;1.50;;;;;;;24.56;52.23;98699.70;124771;1093;64287;-87
2021/08/19 11:10:30;;;;;;;3.10;1.97;;;;;;;24.84;51.62;98698.83;124689;1093;64718;-86
2021/08/19 11:13:01;;;;;;;2.37;1.77;;;;;;;24.95;50.47;98696.36;124694;1093;64357;-87
2021/08/19 11:15:29;;;;;;;2.70;1.90;;;;;;;24.94;50.63;98705.59;124772;1093;64287;-86
2021/08/19 11:17:58;;;;;;;2.55;2.15;;;;;;;24.95;49.58;98696.36;124790;1093;64306;-86
2021/08/19 11:20:29;;;;;;;2.40;1.70;;;;;;;25.10;49.36;98695.39;124786;1093;64612;-87
2021/08/19 11:23:04;;;;;;;1.73;1.63;;;;;;;25.05;49.15;98696.00;124785;1093;64278;-87
2021/08/19 11:25:37;;;;;;;1.20;1.10;;;;;;;25.02;48.79;98693.68;124762;1093;64251;-87
2021/08/19 11:28:14;;;;;;;1.40;1.20;;;;;;;25.12;47.43;98693.28;124776;1093;64291;-87
2021/08/19 11:30:50;;;;;;;3.53;1.00;;;;;;;25.44;46.79;98690.92;124677;1093;64367;-87
2021/08/19 11:33:18;;;;;;;1.40;1.30;;;;;;;25.78;46.44;98698.13;124796;1092;64295;-87
2021/08/19 11:35:52;;;;;;;1.40;1.30;;;;;;;25.74;45.32;98697.69;124800;1093;64687;-86
2021/08/19 11:38:23;;;;;;;2.00;1.37;;;;;;;25.57;45.08;98699.14;124767;1093;64305;-86